Mountville, South Carolina
Current Conditions -  °F | °C
As of 5:15 AM on Saturday 20 Dec 2014 (Local Time) from KLUX Reporting Station
Moderate Rain Moderate Rain  
Wind Chill: 41°   Ceiling: 5000
Heat Index: 41°   Visibility: 10mi
Dew Point: 41°   Wind: 3mph
Humidity: 100%   Direction: 20°NNE
Pressure: 30.16"   Gusts: NA
Location:  34.36°N, 81.97°W
Report Text: KLUX 201015Z AUTO 02003KT 10SM RA OVC050 05/05 A3016 RMK AO2
Loading
Personal Weather Stations






























Interactive Weather Map New forecast layout! Learn more

10-Day Weather Forecast

Advertisements
Track Severe Weather on mobile